新潟空港の過去48時間の天気

新潟空港 (Niigata)

現在時刻: 9/17 00:15 JST (9/16 15:15 UTC) 以下の時間は現地時間です。

過去48時間のMETAR気象情報
時間 風向 風速(m/s) 視程 気温(℃) 湿度(%) 気圧(hPa) 天気現象
16 21:00 北北西 6 10km以上 25 83 1005
16 20:00 5 10km以上 25 83 1005
16 19:00 2 10km以上 26 79 1004
16 18:00 2 10km以上 26 84 1003
16 17:00 北西 3 10km以上 26 79 1003
16 16:00 西北西 3 10km以上 26 84 1003
16 15:00 北西 3 10km以上 26 79 1002
16 14:00 北西 3 10km以上 26 84 1002
16 13:00 北西 4 10km以上 26 79 1003
16 12:00 北北西 3 10km以上 26 74 1003
16 11:00 北北西 4 10km以上 26 70 1004
16 10:00 東北東 2 10km以上 26 74 1004
16 09:00 2 10km以上 25 78 1005
16 08:00 南南東 3 10km以上 25 74 1005
16 07:00 南南西 2 10km以上 24 78 1005
16 06:10 不定 1 10km以上 24 78 1005
15 21:00 4 10km以上 25 89 1007
15 20:00 北北東 4 10km以上 25 89 1007
15 19:00 北北東 4 10km以上 26 79 1007
15 18:00 北北東 5 10km以上 26 79 1007
15 17:00 5 10km以上 26 79 1007
15 16:00 5 10km以上 27 74 1007
15 15:00 4 10km以上 28 70 1007
15 14:00 5 10km以上 28 70 1008
15 13:00 北北西 5 10km以上 28 70 1008
15 12:00 3 10km以上 28 70 1009
15 11:00 4 10km以上 27 70 1009
15 10:00 南南西 3 10km以上 28 58 1010
15 09:00 4 10km以上 28 58 1010
15 08:00 4 10km以上 26 65 1010
15 07:00 南南東 2 10km以上 24 74 1010
15 06:10 南東 2 10km以上 22 83 1010
RJSN 161200Z 34012KT 9999 FEW030 BKN070 25/22 Q1005
RJSN 161100Z 36009KT 320V030 9999 FEW015 SCT025 BKN070 25/22 Q1005
RJSN 161000Z 35003KT 310V040 9999 FEW015 SCT030 BKN080 26/22 Q1004
RJSN 160900Z 36003KT 320V020 9999 FEW020 SCT030 BKN070 26/23 Q1003
RJSN 160800Z 31005KT 9999 FEW020 SCT030 BKN070 26/22 Q1003
RJSN 160700Z 30005KT 9999 FEW030 SCT040 BKN070 26/23 Q1003
RJSN 160600Z 32005KT 290V360 9999 FEW030 SCT050 BKN080 26/22 Q1002
RJSN 160500Z 31005KT 9999 FEW030 SCT050 BKN070 26/23 Q1002
RJSN 160400Z 31007KT 9999 FEW020 SCT030 BKN050 26/22 Q1003
RJSN 160300Z 34006KT 9999 FEW030 BKN050 26/21 Q1003
RJSN 160200Z 34008KT 9999 FEW030 SCT050 BKN080 26/20 Q1004
RJSN 160100Z 06003KT 030V100 9999 FEW030 SCT050 BKN080 26/21 Q1004
RJSN 160000Z 35003KT 320V030 9999 FEW030 BKN050 BKN130 25/21 Q1005
RJSN 152300Z 16005KT 9999 FEW030 BKN130 BKN/// 25/20 Q1005
RJSN 152200Z 21004KT 190V250 9999 FEW040 SCT100 BKN/// 24/20 Q1005
RJSN 152110Z VRB02KT 9999 FEW040 BKN100 24/20 Q1005 RMK 1CU040 6AC100 A2968
RJSN 151200Z 01008KT 9999 FEW040 25/23 Q1007
RJSN 151100Z 02008KT 9999 FEW040 25/23 Q1007
RJSN 151000Z 03007KT 9999 FEW040 26/22 Q1007
RJSN 150900Z 02009KT 9999 FEW040 26/22 Q1007
RJSN 150800Z 01010KT 9999 FEW040 26/22 Q1007
RJSN 150700Z 35009KT 9999 FEW040 SCT/// 27/22 Q1007
RJSN 150600Z 01008KT 9999 FEW040 28/22 Q1007
RJSN 150500Z 35010KT 9999 FEW040 28/22 Q1008
RJSN 150400Z 33010KT 9999 FEW040 28/22 Q1008
RJSN 150300Z 35006KT 9999 FEW040 28/22 Q1009
RJSN 150200Z 35007KT 9999 FEW040 SCT130 27/21 Q1009
RJSN 150100Z 20006KT 110V250 9999 FEW040 28/19 Q1010
RJSN 150000Z 18008KT 9999 FEW040 28/19 Q1010
RJSN 142300Z 19008KT 9999 FEW030 26/19 Q1010
RJSN 142200Z 16004KT 9999 FEW040 24/19 Q1010
RJSN 142110Z 14004KT 9999 FEW050 22/19 Q1010 RMK 1SC050 A2984